sensor_id;sensor_type;location;lat;lon;timestamp;P1;durP1;ratioP1;P2;durP2;ratioP2
14874;SDS011;7529;48.170;17.138;2022-07-29T00:03:35;43.53;;;41.28;;
14874;SDS011;7529;48.170;17.138;2022-07-29T00:07:46;24.00;;;22.73;;
14874;SDS011;7529;48.170;17.138;2022-07-29T00:11:59;21.88;;;20.75;;
14874;SDS011;7529;48.170;17.138;2022-07-29T00:16:12;21.38;;;20.25;;
14874;SDS011;7529;48.170;17.138;2022-07-29T00:20:23;14.70;;;13.77;;
14874;SDS011;7529;48.170;17.138;2022-07-29T00:24:35;18.55;;;17.52;;
14874;SDS011;7529;48.170;17.138;2022-07-29T00:28:46;11.07;;;10.48;;
14874;SDS011;7529;48.170;17.138;2022-07-29T00:32:57;11.25;;;10.65;;
14874;SDS011;7529;48.170;17.138;2022-07-29T00:37:09;10.10;;;9.60;;
14874;SDS011;7529;48.170;17.138;2022-07-29T00:41:20;9.82;;;9.32;;
14874;SDS011;7529;48.170;17.138;2022-07-29T00:45:32;10.98;;;10.27;;
14874;SDS011;7529;48.170;17.138;2022-07-29T00:49:44;10.52;;;10.02;;
14874;SDS011;7529;48.170;17.138;2022-07-29T00:53:55;12.60;;;11.77;;
14874;SDS011;7529;48.170;17.138;2022-07-29T00:58:07;12.30;;;11.60;;
14874;SDS011;7529;48.170;17.138;2022-07-29T01:02:20;10.93;;;10.30;;
14874;SDS011;7529;48.170;17.138;2022-07-29T01:06:31;11.30;;;10.70;;
14874;SDS011;7529;48.170;17.138;2022-07-29T01:10:44;12.60;;;11.90;;
14874;SDS011;7529;48.170;17.138;2022-07-29T01:15:00;13.15;;;12.35;;
14874;SDS011;7529;48.170;17.138;2022-07-29T01:29:07;12.00;;;11.40;;
14874;SDS011;7529;48.170;17.138;2022-07-29T01:33:41;13.05;;;12.27;;
14874;SDS011;7529;48.170;17.138;2022-07-29T01:46:58;32.88;;;31.38;;
14874;SDS011;7529;48.170;17.138;2022-07-29T01:51:21;13.05;;;12.35;;
14874;SDS011;7529;48.170;17.138;2022-07-29T01:55:41;14.85;;;13.95;;
14874;SDS011;7529;48.170;17.138;2022-07-29T01:59:56;13.65;;;12.77;;
14874;SDS011;7529;48.170;17.138;2022-07-29T02:04:10;12.93;;;12.32;;
14874;SDS011;7529;48.170;17.138;2022-07-29T02:08:22;13.05;;;12.35;;
14874;SDS011;7529;48.170;17.138;2022-07-29T02:12:36;15.90;;;15.00;;
14874;SDS011;7529;48.170;17.138;2022-07-29T02:16:50;15.43;;;14.52;;
14874;SDS011;7529;48.170;17.138;2022-07-29T02:21:04;14.00;;;13.10;;
14874;SDS011;7529;48.170;17.138;2022-07-29T02:25:16;14.50;;;12.93;;
14874;SDS011;7529;48.170;17.138;2022-07-29T02:29:29;13.20;;;12.57;;
14874;SDS011;7529;48.170;17.138;2022-07-29T02:33:41;14.02;;;13.23;;
14874;SDS011;7529;48.170;17.138;2022-07-29T02:37:55;12.85;;;12.20;;
14874;SDS011;7529;48.170;17.138;2022-07-29T02:42:26;13.15;;;12.35;;
14874;SDS011;7529;48.170;17.138;2022-07-29T02:46:41;11.90;;;11.35;;
14874;SDS011;7529;48.170;17.138;2022-07-29T02:51:30;12.75;;;12.05;;
14874;SDS011;7529;48.170;17.138;2022-07-29T02:55:56;11.20;;;10.57;;
14874;SDS011;7529;48.170;17.138;2022-07-29T03:00:10;10.18;;;9.68;;
14874;SDS011;7529;48.170;17.138;2022-07-29T03:04:23;11.25;;;10.63;;
14874;SDS011;7529;48.170;17.138;2022-07-29T03:08:36;11.75;;;11.15;;
14874;SDS011;7529;48.170;17.138;2022-07-29T03:12:48;12.15;;;11.45;;
14874;SDS011;7529;48.170;17.138;2022-07-29T03:17:02;14.48;;;13.68;;
14874;SDS011;7529;48.170;17.138;2022-07-29T03:21:14;15.70;;;14.90;;
14874;SDS011;7529;48.170;17.138;2022-07-29T03:25:26;13.93;;;13.20;;
14874;SDS011;7529;48.170;17.138;2022-07-29T03:29:38;15.98;;;15.02;;
14874;SDS011;7529;48.170;17.138;2022-07-29T03:33:49;13.57;;;12.85;;
14874;SDS011;7529;48.170;17.138;2022-07-29T03:38:01;13.45;;;12.65;;
14874;SDS011;7529;48.170;17.138;2022-07-29T03:42:13;13.93;;;13.13;;
14874;SDS011;7529;48.170;17.138;2022-07-29T03:46:27;16.25;;;15.30;;
14874;SDS011;7529;48.170;17.138;2022-07-29T03:50:40;13.85;;;13.10;;
14874;SDS011;7529;48.170;17.138;2022-07-29T03:54:52;13.38;;;12.63;;
14874;SDS011;7529;48.170;17.138;2022-07-29T03:59:04;11.55;;;10.95;;
14874;SDS011;7529;48.170;17.138;2022-07-29T04:03:16;11.65;;;10.75;;
14874;SDS011;7529;48.170;17.138;2022-07-29T04:07:27;9.15;;;8.65;;
14874;SDS011;7529;48.170;17.138;2022-07-29T04:11:40;39.90;;;38.08;;
14874;SDS011;7529;48.170;17.138;2022-07-29T04:15:52;8.95;;;8.45;;
14874;SDS011;7529;48.170;17.138;2022-07-29T04:20:05;8.80;;;8.30;;
14874;SDS011;7529;48.170;17.138;2022-07-29T04:24:17;8.95;;;8.35;;
14874;SDS011;7529;48.170;17.138;2022-07-29T04:28:29;30.88;;;29.13;;
14874;SDS011;7529;48.170;17.138;2022-07-29T04:32:41;7.97;;;7.38;;
14874;SDS011;7529;48.170;17.138;2022-07-29T04:36:52;7.95;;;7.35;;
14874;SDS011;7529;48.170;17.138;2022-07-29T04:41:03;8.07;;;7.57;;
14874;SDS011;7529;48.170;17.138;2022-07-29T04:45:17;14.65;;;13.90;;
14874;SDS011;7529;48.170;17.138;2022-07-29T04:49:28;9.25;;;8.45;;
14874;SDS011;7529;48.170;17.138;2022-07-29T04:53:40;10.90;;;7.47;;
14874;SDS011;7529;48.170;17.138;2022-07-29T04:57:52;6.90;;;6.20;;
14874;SDS011;7529;48.170;17.138;2022-07-29T05:02:03;6.18;;;5.75;;
14874;SDS011;7529;48.170;17.138;2022-07-29T05:06:14;6.25;;;5.85;;
14874;SDS011;7529;48.170;17.138;2022-07-29T05:10:26;5.82;;;5.40;;
14874;SDS011;7529;48.170;17.138;2022-07-29T05:14:38;5.53;;;5.18;;
14874;SDS011;7529;48.170;17.138;2022-07-29T05:18:49;5.72;;;5.32;;
14874;SDS011;7529;48.170;17.138;2022-07-29T05:23:01;5.35;;;4.88;;
14874;SDS011;7529;48.170;17.138;2022-07-29T05:27:13;5.07;;;4.78;;
14874;SDS011;7529;48.170;17.138;2022-07-29T05:31:25;6.85;;;6.35;;
14874;SDS011;7529;48.170;17.138;2022-07-29T05:35:36;5.15;;;4.85;;
14874;SDS011;7529;48.170;17.138;2022-07-29T05:39:48;5.35;;;4.95;;
14874;SDS011;7529;48.170;17.138;2022-07-29T05:43:59;6.40;;;5.78;;
14874;SDS011;7529;48.170;17.138;2022-07-29T05:48:11;5.65;;;5.25;;
14874;SDS011;7529;48.170;17.138;2022-07-29T05:52:22;5.22;;;4.82;;
14874;SDS011;7529;48.170;17.138;2022-07-29T05:56:35;8.15;;;7.35;;
14874;SDS011;7529;48.170;17.138;2022-07-29T06:00:47;5.57;;;5.28;;
14874;SDS011;7529;48.170;17.138;2022-07-29T06:04:59;6.45;;;6.00;;
14874;SDS011;7529;48.170;17.138;2022-07-29T06:09:13;5.75;;;5.35;;
14874;SDS011;7529;48.170;17.138;2022-07-29T06:13:25;5.40;;;5.10;;
14874;SDS011;7529;48.170;17.138;2022-07-29T06:17:37;5.82;;;5.43;;
14874;SDS011;7529;48.170;17.138;2022-07-29T06:21:48;5.63;;;5.15;;
14874;SDS011;7529;48.170;17.138;2022-07-29T06:26:00;5.32;;;4.93;;
14874;SDS011;7529;48.170;17.138;2022-07-29T06:30:12;5.38;;;4.93;;
14874;SDS011;7529;48.170;17.138;2022-07-29T06:34:23;5.43;;;5.13;;
14874;SDS011;7529;48.170;17.138;2022-07-29T06:38:35;5.63;;;5.22;;
14874;SDS011;7529;48.170;17.138;2022-07-29T06:42:48;5.30;;;5.00;;
14874;SDS011;7529;48.170;17.138;2022-07-29T06:47:00;5.50;;;5.20;;
14874;SDS011;7529;48.170;17.138;2022-07-29T06:51:13;5.78;;;5.38;;
14874;SDS011;7529;48.170;17.138;2022-07-29T06:55:24;5.53;;;5.13;;
14874;SDS011;7529;48.170;17.138;2022-07-29T06:59:36;4.78;;;4.47;;
14874;SDS011;7529;48.170;17.138;2022-07-29T07:03:47;5.43;;;5.05;;
14874;SDS011;7529;48.170;17.138;2022-07-29T07:07:59;5.07;;;4.78;;
14874;SDS011;7529;48.170;17.138;2022-07-29T07:12:10;6.05;;;5.63;;
14874;SDS011;7529;48.170;17.138;2022-07-29T07:16:22;9.32;;;7.10;;
14874;SDS011;7529;48.170;17.138;2022-07-29T07:20:34;5.68;;;5.38;;
14874;SDS011;7529;48.170;17.138;2022-07-29T07:24:46;6.75;;;6.40;;
14874;SDS011;7529;48.170;17.138;2022-07-29T07:28:58;7.38;;;6.97;;
14874;SDS011;7529;48.170;17.138;2022-07-29T07:33:10;9.95;;;7.18;;
14874;SDS011;7529;48.170;17.138;2022-07-29T07:37:22;7.05;;;6.55;;
14874;SDS011;7529;48.170;17.138;2022-07-29T07:41:35;5.35;;;5.05;;
14874;SDS011;7529;48.170;17.138;2022-07-29T07:45:47;5.85;;;5.45;;
14874;SDS011;7529;48.170;17.138;2022-07-29T07:49:59;4.38;;;4.10;;
14874;SDS011;7529;48.170;17.138;2022-07-29T07:54:11;4.88;;;4.43;;
14874;SDS011;7529;48.170;17.138;2022-07-29T07:58:22;5.03;;;4.70;;
14874;SDS011;7529;48.170;17.138;2022-07-29T08:02:34;5.55;;;5.05;;
14874;SDS011;7529;48.170;17.138;2022-07-29T08:06:45;7.25;;;6.75;;
14874;SDS011;7529;48.170;17.138;2022-07-29T08:10:57;5.90;;;5.50;;
14874;SDS011;7529;48.170;17.138;2022-07-29T08:15:09;5.25;;;4.85;;
14874;SDS011;7529;48.170;17.138;2022-07-29T08:19:21;6.60;;;6.10;;
14874;SDS011;7529;48.170;17.138;2022-07-29T08:23:32;7.18;;;6.70;;
14874;SDS011;7529;48.170;17.138;2022-07-29T08:27:52;6.78;;;6.32;;
14874;SDS011;7529;48.170;17.138;2022-07-29T08:32:04;6.63;;;6.25;;
14874;SDS011;7529;48.170;17.138;2022-07-29T08:36:16;7.40;;;6.90;;
14874;SDS011;7529;48.170;17.138;2022-07-29T08:40:30;8.63;;;7.85;;
14874;SDS011;7529;48.170;17.138;2022-07-29T08:44:42;10.13;;;9.43;;
14874;SDS011;7529;48.170;17.138;2022-07-29T08:48:56;6.85;;;6.45;;
14874;SDS011;7529;48.170;17.138;2022-07-29T08:53:12;9.07;;;8.48;;
14874;SDS011;7529;48.170;17.138;2022-07-29T08:57:26;4.68;;;4.38;;
14874;SDS011;7529;48.170;17.138;2022-07-29T09:01:38;5.00;;;4.45;;
14874;SDS011;7529;48.170;17.138;2022-07-29T09:05:50;3.97;;;3.78;;
14874;SDS011;7529;48.170;17.138;2022-07-29T09:10:03;4.57;;;4.28;;
14874;SDS011;7529;48.170;17.138;2022-07-29T09:14:15;4.68;;;4.47;;
14874;SDS011;7529;48.170;17.138;2022-07-29T09:22:47;5.72;;;5.43;;
14874;SDS011;7529;48.170;17.138;2022-07-29T09:27:00;4.53;;;4.28;;
14874;SDS011;7529;48.170;17.138;2022-07-29T09:31:12;4.40;;;4.20;;
14874;SDS011;7529;48.170;17.138;2022-07-29T09:35:25;5.40;;;4.15;;
14874;SDS011;7529;48.170;17.138;2022-07-29T09:39:38;3.88;;;3.63;;
14874;SDS011;7529;48.170;17.138;2022-07-29T09:43:57;3.92;;;3.70;;
14874;SDS011;7529;48.170;17.138;2022-07-29T09:48:14;4.30;;;4.00;;
14874;SDS011;7529;48.170;17.138;2022-07-29T09:52:48;3.85;;;3.65;;
14874;SDS011;7529;48.170;17.138;2022-07-29T09:57:03;3.90;;;3.67;;
14874;SDS011;7529;48.170;17.138;2022-07-29T10:01:27;4.32;;;3.92;;
14874;SDS011;7529;48.170;17.138;2022-07-29T10:05:39;3.88;;;3.58;;
14874;SDS011;7529;48.170;17.138;2022-07-29T10:09:53;4.55;;;4.13;;
14874;SDS011;7529;48.170;17.138;2022-07-29T10:14:06;3.55;;;3.35;;
14874;SDS011;7529;48.170;17.138;2022-07-29T10:18:18;3.53;;;3.33;;
14874;SDS011;7529;48.170;17.138;2022-07-29T10:22:30;3.45;;;3.25;;
14874;SDS011;7529;48.170;17.138;2022-07-29T10:26:42;3.17;;;3.08;;
14874;SDS011;7529;48.170;17.138;2022-07-29T10:30:58;3.78;;;3.58;;
14874;SDS011;7529;48.170;17.138;2022-07-29T10:43:54;5.63;;;5.32;;
14874;SDS011;7529;48.170;17.138;2022-07-29T10:48:09;8.05;;;7.65;;
14874;SDS011;7529;48.170;17.138;2022-07-29T10:52:21;8.25;;;7.85;;
14874;SDS011;7529;48.170;17.138;2022-07-29T10:56:34;12.88;;;12.27;;
14874;SDS011;7529;48.170;17.138;2022-07-29T11:00:47;12.35;;;11.80;;
14874;SDS011;7529;48.170;17.138;2022-07-29T11:05:03;7.60;;;7.20;;
14874;SDS011;7529;48.170;17.138;2022-07-29T11:09:18;7.70;;;7.30;;
14874;SDS011;7529;48.170;17.138;2022-07-29T11:22:31;5.28;;;5.07;;
14874;SDS011;7529;48.170;17.138;2022-07-29T11:35:57;4.40;;;4.20;;
14874;SDS011;7529;48.170;17.138;2022-07-29T11:40:24;4.22;;;3.90;;
14874;SDS011;7529;48.170;17.138;2022-07-29T11:49:20;4.05;;;3.83;;
14874;SDS011;7529;48.170;17.138;2022-07-29T11:53:33;4.53;;;4.22;;
14874;SDS011;7529;48.170;17.138;2022-07-29T12:02:07;3.90;;;3.70;;
14874;SDS011;7529;48.170;17.138;2022-07-29T12:06:19;4.55;;;4.25;;
14874;SDS011;7529;48.170;17.138;2022-07-29T12:10:30;4.57;;;4.38;;
14874;SDS011;7529;48.170;17.138;2022-07-29T12:14:42;4.72;;;4.47;;
14874;SDS011;7529;48.170;17.138;2022-07-29T12:19:00;5.90;;;3.97;;
14874;SDS011;7529;48.170;17.138;2022-07-29T12:23:13;4.38;;;4.07;;
14874;SDS011;7529;48.170;17.138;2022-07-29T12:27:27;4.15;;;3.92;;
14874;SDS011;7529;48.170;17.138;2022-07-29T12:31:38;4.20;;;4.00;;
14874;SDS011;7529;48.170;17.138;2022-07-29T12:35:54;4.30;;;4.10;;
14874;SDS011;7529;48.170;17.138;2022-07-29T12:40:09;4.40;;;4.10;;
14874;SDS011;7529;48.170;17.138;2022-07-29T12:44:23;4.07;;;3.88;;
14874;SDS011;7529;48.170;17.138;2022-07-29T12:48:36;4.25;;;3.85;;
14874;SDS011;7529;48.170;17.138;2022-07-29T12:52:53;4.38;;;4.18;;
14874;SDS011;7529;48.170;17.138;2022-07-29T12:57:04;4.47;;;4.28;;
14874;SDS011;7529;48.170;17.138;2022-07-29T13:01:17;5.20;;;4.90;;
14874;SDS011;7529;48.170;17.138;2022-07-29T13:05:41;5.15;;;4.55;;
14874;SDS011;7529;48.170;17.138;2022-07-29T13:10:17;4.65;;;4.35;;
14874;SDS011;7529;48.170;17.138;2022-07-29T13:14:44;4.43;;;4.13;;
14874;SDS011;7529;48.170;17.138;2022-07-29T13:19:18;4.47;;;4.18;;
14874;SDS011;7529;48.170;17.138;2022-07-29T13:23:30;4.13;;;3.92;;
14874;SDS011;7529;48.170;17.138;2022-07-29T13:27:42;4.00;;;3.80;;
14874;SDS011;7529;48.170;17.138;2022-07-29T13:31:56;5.10;;;3.67;;
14874;SDS011;7529;48.170;17.138;2022-07-29T13:36:07;4.05;;;3.80;;
14874;SDS011;7529;48.170;17.138;2022-07-29T13:40:19;3.35;;;3.25;;
14874;SDS011;7529;48.170;17.138;2022-07-29T13:44:31;4.22;;;3.92;;
14874;SDS011;7529;48.170;17.138;2022-07-29T13:48:42;4.10;;;3.80;;
14874;SDS011;7529;48.170;17.138;2022-07-29T13:52:54;4.35;;;4.15;;
14874;SDS011;7529;48.170;17.138;2022-07-29T13:57:06;4.53;;;4.32;;
14874;SDS011;7529;48.170;17.138;2022-07-29T14:01:18;3.90;;;3.70;;
14874;SDS011;7529;48.170;17.138;2022-07-29T14:05:29;4.20;;;4.00;;
14874;SDS011;7529;48.170;17.138;2022-07-29T14:09:41;4.00;;;3.80;;
14874;SDS011;7529;48.170;17.138;2022-07-29T14:13:52;4.43;;;4.22;;
14874;SDS011;7529;48.170;17.138;2022-07-29T14:18:04;9.63;;;4.10;;
14874;SDS011;7529;48.170;17.138;2022-07-29T14:22:16;5.00;;;4.70;;
14874;SDS011;7529;48.170;17.138;2022-07-29T14:26:29;4.55;;;4.25;;
14874;SDS011;7529;48.170;17.138;2022-07-29T14:30:41;4.60;;;4.30;;
14874;SDS011;7529;48.170;17.138;2022-07-29T14:34:53;4.68;;;4.38;;
14874;SDS011;7529;48.170;17.138;2022-07-29T14:39:04;4.60;;;4.40;;
14874;SDS011;7529;48.170;17.138;2022-07-29T14:43:16;4.72;;;4.40;;
14874;SDS011;7529;48.170;17.138;2022-07-29T14:47:27;4.38;;;4.07;;
14874;SDS011;7529;48.170;17.138;2022-07-29T14:51:39;4.22;;;3.95;;
14874;SDS011;7529;48.170;17.138;2022-07-29T14:55:51;4.20;;;3.90;;
14874;SDS011;7529;48.170;17.138;2022-07-29T15:00:03;5.78;;;4.40;;
14874;SDS011;7529;48.170;17.138;2022-07-29T15:04:17;3.88;;;3.67;;
14874;SDS011;7529;48.170;17.138;2022-07-29T15:08:28;4.07;;;3.88;;
14874;SDS011;7529;48.170;17.138;2022-07-29T15:12:41;4.82;;;3.63;;
14874;SDS011;7529;48.170;17.138;2022-07-29T15:16:52;4.45;;;4.25;;
14874;SDS011;7529;48.170;17.138;2022-07-29T15:21:04;5.57;;;5.18;;
14874;SDS011;7529;48.170;17.138;2022-07-29T15:25:17;4.40;;;4.00;;
14874;SDS011;7529;48.170;17.138;2022-07-29T15:29:29;8.40;;;7.85;;
14874;SDS011;7529;48.170;17.138;2022-07-29T15:33:41;49.47;;;47.05;;
14874;SDS011;7529;48.170;17.138;2022-07-29T15:37:52;66.85;;;63.72;;
14874;SDS011;7529;48.170;17.138;2022-07-29T15:42:04;70.70;;;67.40;;
14874;SDS011;7529;48.170;17.138;2022-07-29T15:46:16;61.70;;;58.88;;
14874;SDS011;7529;48.170;17.138;2022-07-29T15:50:47;91.68;;;87.25;;
14874;SDS011;7529;48.170;17.138;2022-07-29T15:54:59;144.60;;;136.35;;
14874;SDS011;7529;48.170;17.138;2022-07-29T15:59:11;71.85;;;67.97;;
14874;SDS011;7529;48.170;17.138;2022-07-29T16:03:22;41.63;;;39.40;;
14874;SDS011;7529;48.170;17.138;2022-07-29T16:07:34;31.98;;;30.33;;
14874;SDS011;7529;48.170;17.138;2022-07-29T16:11:46;25.60;;;24.30;;
14874;SDS011;7529;48.170;17.138;2022-07-29T16:16:00;21.48;;;20.25;;
14874;SDS011;7529;48.170;17.138;2022-07-29T16:20:11;17.25;;;16.33;;
14874;SDS011;7529;48.170;17.138;2022-07-29T16:24:23;16.23;;;15.43;;
14874;SDS011;7529;48.170;17.138;2022-07-29T16:28:39;19.27;;;18.27;;
14874;SDS011;7529;48.170;17.138;2022-07-29T16:32:52;20.92;;;19.73;;
14874;SDS011;7529;48.170;17.138;2022-07-29T16:37:03;21.80;;;20.60;;
14874;SDS011;7529;48.170;17.138;2022-07-29T16:41:15;20.65;;;19.52;;
14874;SDS011;7529;48.170;17.138;2022-07-29T16:45:27;17.77;;;16.77;;
14874;SDS011;7529;48.170;17.138;2022-07-29T16:49:39;11.48;;;10.98;;
14874;SDS011;7529;48.170;17.138;2022-07-29T16:53:50;8.68;;;8.18;;
14874;SDS011;7529;48.170;17.138;2022-07-29T16:58:02;8.88;;;8.27;;
14874;SDS011;7529;48.170;17.138;2022-07-29T17:02:13;7.65;;;7.15;;
14874;SDS011;7529;48.170;17.138;2022-07-29T17:06:25;7.07;;;6.38;;
14874;SDS011;7529;48.170;17.138;2022-07-29T17:10:36;6.65;;;6.07;;
14874;SDS011;7529;48.170;17.138;2022-07-29T17:14:48;6.10;;;5.60;;
14874;SDS011;7529;48.170;17.138;2022-07-29T17:18:59;6.38;;;5.85;;
14874;SDS011;7529;48.170;17.138;2022-07-29T17:23:11;6.57;;;5.97;;
14874;SDS011;7529;48.170;17.138;2022-07-29T17:27:23;6.53;;;6.13;;
14874;SDS011;7529;48.170;17.138;2022-07-29T17:31:34;6.53;;;6.13;;
14874;SDS011;7529;48.170;17.138;2022-07-29T17:35:47;6.38;;;5.97;;
14874;SDS011;7529;48.170;17.138;2022-07-29T17:40:17;6.82;;;6.18;;
14874;SDS011;7529;48.170;17.138;2022-07-29T17:44:29;6.53;;;6.13;;
14874;SDS011;7529;48.170;17.138;2022-07-29T17:48:40;6.97;;;6.47;;
14874;SDS011;7529;48.170;17.138;2022-07-29T17:52:52;6.68;;;6.00;;
14874;SDS011;7529;48.170;17.138;2022-07-29T17:57:04;9.02;;;5.57;;
14874;SDS011;7529;48.170;17.138;2022-07-29T18:01:15;6.40;;;6.00;;
14874;SDS011;7529;48.170;17.138;2022-07-29T18:05:27;6.47;;;5.72;;
14874;SDS011;7529;48.170;17.138;2022-07-29T18:09:38;6.32;;;5.93;;
14874;SDS011;7529;48.170;17.138;2022-07-29T18:13:50;7.47;;;6.93;;
14874;SDS011;7529;48.170;17.138;2022-07-29T18:18:01;8.65;;;7.95;;
14874;SDS011;7529;48.170;17.138;2022-07-29T18:22:13;6.50;;;6.10;;
14874;SDS011;7529;48.170;17.138;2022-07-29T18:26:25;6.40;;;5.95;;
14874;SDS011;7529;48.170;17.138;2022-07-29T18:30:36;6.30;;;5.80;;
14874;SDS011;7529;48.170;17.138;2022-07-29T18:34:48;8.20;;;7.47;;
14874;SDS011;7529;48.170;17.138;2022-07-29T18:39:00;6.00;;;5.57;;
14874;SDS011;7529;48.170;17.138;2022-07-29T18:43:11;7.95;;;7.18;;
14874;SDS011;7529;48.170;17.138;2022-07-29T18:47:23;9.25;;;8.68;;
14874;SDS011;7529;48.170;17.138;2022-07-29T18:51:35;10.40;;;9.70;;
14874;SDS011;7529;48.170;17.138;2022-07-29T18:55:46;12.52;;;11.82;;
14874;SDS011;7529;48.170;17.138;2022-07-29T18:59:58;14.60;;;13.68;;
14874;SDS011;7529;48.170;17.138;2022-07-29T19:04:09;26.60;;;25.05;;
14874;SDS011;7529;48.170;17.138;2022-07-29T19:08:21;52.05;;;49.55;;
14874;SDS011;7529;48.170;17.138;2022-07-29T19:12:32;69.22;;;64.82;;
14874;SDS011;7529;48.170;17.138;2022-07-29T19:16:44;79.60;;;75.43;;
14874;SDS011;7529;48.170;17.138;2022-07-29T19:20:55;73.45;;;69.70;;
14874;SDS011;7529;48.170;17.138;2022-07-29T19:25:07;73.10;;;69.28;;
14874;SDS011;7529;48.170;17.138;2022-07-29T19:29:19;60.78;;;57.78;;
14874;SDS011;7529;48.170;17.138;2022-07-29T19:33:32;44.80;;;42.50;;
14874;SDS011;7529;48.170;17.138;2022-07-29T19:37:44;46.65;;;44.22;;
14874;SDS011;7529;48.170;17.138;2022-07-29T19:41:56;123.72;;;117.30;;
14874;SDS011;7529;48.170;17.138;2022-07-29T19:46:08;57.88;;;55.15;;
14874;SDS011;7529;48.170;17.138;2022-07-29T19:50:23;104.95;;;100.25;;
14874;SDS011;7529;48.170;17.138;2022-07-29T19:54:35;40.33;;;38.08;;
14874;SDS011;7529;48.170;17.138;2022-07-29T19:58:47;20.17;;;19.17;;
14874;SDS011;7529;48.170;17.138;2022-07-29T20:02:58;20.73;;;19.58;;
14874;SDS011;7529;48.170;17.138;2022-07-29T20:07:10;19.65;;;18.73;;
14874;SDS011;7529;48.170;17.138;2022-07-29T20:11:22;24.25;;;23.10;;
14874;SDS011;7529;48.170;17.138;2022-07-29T20:15:34;49.90;;;47.58;;
14874;SDS011;7529;48.170;17.138;2022-07-29T20:19:45;52.88;;;49.78;;
14874;SDS011;7529;48.170;17.138;2022-07-29T20:24:00;55.00;;;52.28;;
14874;SDS011;7529;48.170;17.138;2022-07-29T20:28:14;19.65;;;18.50;;
14874;SDS011;7529;48.170;17.138;2022-07-29T20:32:25;20.85;;;19.67;;
14874;SDS011;7529;48.170;17.138;2022-07-29T20:36:37;48.65;;;46.33;;
14874;SDS011;7529;48.170;17.138;2022-07-29T20:40:48;55.22;;;52.60;;
14874;SDS011;7529;48.170;17.138;2022-07-29T20:45:00;20.15;;;19.13;;
14874;SDS011;7529;48.170;17.138;2022-07-29T20:49:13;47.10;;;44.90;;
14874;SDS011;7529;48.170;17.138;2022-07-29T20:53:24;49.22;;;46.47;;
14874;SDS011;7529;48.170;17.138;2022-07-29T20:57:36;45.63;;;43.33;;
14874;SDS011;7529;48.170;17.138;2022-07-29T21:01:48;15.05;;;14.15;;
14874;SDS011;7529;48.170;17.138;2022-07-29T21:05:59;37.63;;;35.80;;
14874;SDS011;7529;48.170;17.138;2022-07-29T21:10:11;14.65;;;13.60;;
14874;SDS011;7529;48.170;17.138;2022-07-29T21:14:23;34.80;;;33.15;;
14874;SDS011;7529;48.170;17.138;2022-07-29T21:18:50;14.40;;;13.63;;
14874;SDS011;7529;48.170;17.138;2022-07-29T21:23:02;15.38;;;14.55;;
14874;SDS011;7529;48.170;17.138;2022-07-29T21:27:14;14.00;;;13.27;;
14874;SDS011;7529;48.170;17.138;2022-07-29T21:31:44;12.85;;;12.18;;
14874;SDS011;7529;48.170;17.138;2022-07-29T21:35:55;20.42;;;19.42;;
14874;SDS011;7529;48.170;17.138;2022-07-29T21:40:07;26.55;;;25.10;;
14874;SDS011;7529;48.170;17.138;2022-07-29T21:44:19;27.20;;;25.90;;
14874;SDS011;7529;48.170;17.138;2022-07-29T21:48:31;25.90;;;24.70;;
14874;SDS011;7529;48.170;17.138;2022-07-29T21:52:42;28.30;;;26.92;;
14874;SDS011;7529;48.170;17.138;2022-07-29T21:56:54;30.60;;;29.20;;
14874;SDS011;7529;48.170;17.138;2022-07-29T22:01:05;34.03;;;32.33;;
14874;SDS011;7529;48.170;17.138;2022-07-29T22:05:17;34.00;;;32.33;;
14874;SDS011;7529;48.170;17.138;2022-07-29T22:09:29;28.65;;;27.27;;
14874;SDS011;7529;48.170;17.138;2022-07-29T22:13:40;35.17;;;33.53;;
14874;SDS011;7529;48.170;17.138;2022-07-29T22:17:52;30.55;;;29.17;;
14874;SDS011;7529;48.170;17.138;2022-07-29T22:22:03;23.73;;;22.55;;
14874;SDS011;7529;48.170;17.138;2022-07-29T22:26:15;21.45;;;20.40;;
14874;SDS011;7529;48.170;17.138;2022-07-29T22:30:26;38.53;;;36.70;;
14874;SDS011;7529;48.170;17.138;2022-07-29T22:34:38;18.98;;;17.60;;
14874;SDS011;7529;48.170;17.138;2022-07-29T22:38:49;16.27;;;15.38;;
14874;SDS011;7529;48.170;17.138;2022-07-29T22:43:01;15.43;;;14.63;;
14874;SDS011;7529;48.170;17.138;2022-07-29T22:47:12;15.90;;;15.05;;
14874;SDS011;7529;48.170;17.138;2022-07-29T22:51:24;15.23;;;14.38;;
14874;SDS011;7529;48.170;17.138;2022-07-29T22:55:35;13.27;;;12.52;;
14874;SDS011;7529;48.170;17.138;2022-07-29T22:59:47;30.95;;;29.55;;
14874;SDS011;7529;48.170;17.138;2022-07-29T23:03:59;11.73;;;11.15;;
14874;SDS011;7529;48.170;17.138;2022-07-29T23:08:11;16.75;;;15.80;;
14874;SDS011;7529;48.170;17.138;2022-07-29T23:12:22;14.20;;;13.40;;
14874;SDS011;7529;48.170;17.138;2022-07-29T23:16:33;35.08;;;33.33;;
14874;SDS011;7529;48.170;17.138;2022-07-29T23:20:45;15.93;;;15.05;;
14874;SDS011;7529;48.170;17.138;2022-07-29T23:24:57;17.77;;;16.75;;
14874;SDS011;7529;48.170;17.138;2022-07-29T23:29:08;20.45;;;19.25;;
14874;SDS011;7529;48.170;17.138;2022-07-29T23:33:20;34.53;;;32.63;;
14874;SDS011;7529;48.170;17.138;2022-07-29T23:37:32;15.55;;;14.63;;
14874;SDS011;7529;48.170;17.138;2022-07-29T23:41:44;14.77;;;13.88;;
14874;SDS011;7529;48.170;17.138;2022-07-29T23:45:55;12.77;;;12.13;;
14874;SDS011;7529;48.170;17.138;2022-07-29T23:50:07;12.15;;;11.52;;
14874;SDS011;7529;48.170;17.138;2022-07-29T23:54:24;26.92;;;25.63;;
14874;SDS011;7529;48.170;17.138;2022-07-29T23:58:36;10.68;;;9.98;;
